Aquilla, Alabama
Current Conditions -  °F | °C
As of 4:58 AM on Monday 20 Oct 2014 (Local Time) from KMEI Reporting Station
Clear Clear  
Wind Chill: 43°   Ceiling: Unl
Heat Index: 43°   Visibility: 10mi
Dew Point: 41°   Wind: 0mph
Humidity: 93%   Direction: NA
Pressure: 30.07"   Gusts: NA
Location:  31.6272°N, 88.354°W
Report Text: KMEI 200958Z AUTO 00000KT 10SM CLR 06/05 A3007 RMK AO2 SLP182 T00610050
Loading
Personal Weather Stations






























Interactive Weather Map
Tropical Storm Tracking
New forecast layout! Learn more

10-Day Weather Forecast

Advertisements
Track Severe Weather on mobile